Terminal Aerodrome Forecast
Issued by NWS Melbourne, FL

Home | Current Version | Previous Version | Text Only | Print | Product List | Glossary On
Versions: 1 2 3 4 5 6 7 8 9 10 11 12 13
000
FTUS42 KMLB 291758 AAA
TAFVRB
TAF AMD
KVRB 291758Z 2918/3018 08010KT P6SM VCTS SCT040CB OVC080
      TEMPO 2918/2920 3SM TSRA BKN035CB
     FM300200 VRB03KT P6SM SCT020 SCT040
     FM301300 05007KT P6SM VCSH SCT030 SCT050=

USA.gov is the U.S. government's official web portal to all federal, state and local government web resources and services.